sensor_id;sensor_type;location;lat;lon;timestamp;temperature;humidity
63537;DHT22;49686;51.880;5.632;2022-09-09T00:00:13;11.80;99.90
63537;DHT22;49686;51.880;5.632;2022-09-09T00:02:42;11.90;99.90
63537;DHT22;49686;51.880;5.632;2022-09-09T00:05:19;11.90;99.90
63537;DHT22;49686;51.880;5.632;2022-09-09T00:07:52;11.90;99.90
63537;DHT22;49686;51.880;5.632;2022-09-09T00:10:23;11.90;99.90
63537;DHT22;49686;51.880;5.632;2022-09-09T00:13:01;11.90;99.90
63537;DHT22;49686;51.880;5.632;2022-09-09T00:15:32;11.90;99.90
63537;DHT22;49686;51.880;5.632;2022-09-09T00:18:10;11.90;99.90
63537;DHT22;49686;51.880;5.632;2022-09-09T00:20:45;11.80;99.90
63537;DHT22;49686;51.880;5.632;2022-09-09T00:23:20;11.80;99.90
63537;DHT22;49686;51.880;5.632;2022-09-09T00:25:57;11.70;99.90
63537;DHT22;49686;51.880;5.632;2022-09-09T00:28:28;11.60;99.90
63537;DHT22;49686;51.880;5.632;2022-09-09T00:30:56;11.60;99.90
63537;DHT22;49686;51.880;5.632;2022-09-09T00:33:24;11.50;99.90
63537;DHT22;49686;51.880;5.632;2022-09-09T00:35:54;11.50;99.90
63537;DHT22;49686;51.880;5.632;2022-09-09T00:38:26;11.40;99.90
63537;DHT22;49686;51.880;5.632;2022-09-09T00:41:00;11.30;99.90
63537;DHT22;49686;51.880;5.632;2022-09-09T00:43:29;11.30;99.90
63537;DHT22;49686;51.880;5.632;2022-09-09T00:49:04;11.30;99.90
63537;DHT22;49686;51.880;5.632;2022-09-09T00:51:45;11.20;99.90
63537;DHT22;49686;51.880;5.632;2022-09-09T00:54:27;11.20;99.90
63537;DHT22;49686;51.880;5.632;2022-09-09T00:59:48;11.00;99.90
63537;DHT22;49686;51.880;5.632;2022-09-09T01:02:27;11.10;99.90
63537;DHT22;49686;51.880;5.632;2022-09-09T01:04:54;11.10;99.90
63537;DHT22;49686;51.880;5.632;2022-09-09T01:07:21;11.00;99.90
63537;DHT22;49686;51.880;5.632;2022-09-09T01:09:54;11.00;99.90
63537;DHT22;49686;51.880;5.632;2022-09-09T01:12:28;10.90;99.90
63537;DHT22;49686;51.880;5.632;2022-09-09T01:15:03;10.90;99.90
63537;DHT22;49686;51.880;5.632;2022-09-09T01:17:39;10.80;99.90
63537;DHT22;49686;51.880;5.632;2022-09-09T01:20:13;10.90;99.90
63537;DHT22;49686;51.880;5.632;2022-09-09T01:22:47;10.90;99.90
63537;DHT22;49686;51.880;5.632;2022-09-09T01:28:08;10.80;99.90
63537;DHT22;49686;51.880;5.632;2022-09-09T01:30:39;10.80;99.90
63537;DHT22;49686;51.880;5.632;2022-09-09T01:33:11;10.80;99.90
63537;DHT22;49686;51.880;5.632;2022-09-09T01:35:44;10.80;99.90
63537;DHT22;49686;51.880;5.632;2022-09-09T01:38:14;10.70;99.90
63537;DHT22;49686;51.880;5.632;2022-09-09T01:40:42;10.80;99.90
63537;DHT22;49686;51.880;5.632;2022-09-09T01:43:10;10.80;99.90
63537;DHT22;49686;51.880;5.632;2022-09-09T01:45:39;10.80;99.90
63537;DHT22;49686;51.880;5.632;2022-09-09T01:48:07;10.70;99.90
63537;DHT22;49686;51.880;5.632;2022-09-09T01:50:34;10.80;99.90
63537;DHT22;49686;51.880;5.632;2022-09-09T01:53:02;10.70;99.90
63537;DHT22;49686;51.880;5.632;2022-09-09T01:55:30;10.70;99.90
63537;DHT22;49686;51.880;5.632;2022-09-09T01:58:02;10.70;99.90
63537;DHT22;49686;51.880;5.632;2022-09-09T02:00:38;10.70;99.90
63537;DHT22;49686;51.880;5.632;2022-09-09T02:03:13;10.70;99.90
63537;DHT22;49686;51.880;5.632;2022-09-09T02:05:49;10.70;99.90
63537;DHT22;49686;51.880;5.632;2022-09-09T02:08:22;10.70;99.90
63537;DHT22;49686;51.880;5.632;2022-09-09T02:10:55;10.60;99.90
63537;DHT22;49686;51.880;5.632;2022-09-09T02:13:23;10.60;99.90
63537;DHT22;49686;51.880;5.632;2022-09-09T02:15:56;10.60;99.90
63537;DHT22;49686;51.880;5.632;2022-09-09T02:18:28;10.60;99.90
63537;DHT22;49686;51.880;5.632;2022-09-09T02:20:56;10.60;99.90
63537;DHT22;49686;51.880;5.632;2022-09-09T02:23:24;10.60;99.90
63537;DHT22;49686;51.880;5.632;2022-09-09T02:25:51;10.60;99.90
63537;DHT22;49686;51.880;5.632;2022-09-09T02:28:21;10.50;99.90
63537;DHT22;49686;51.880;5.632;2022-09-09T02:30:52;10.50;99.90
63537;DHT22;49686;51.880;5.632;2022-09-09T02:33:19;10.50;99.90
63537;DHT22;49686;51.880;5.632;2022-09-09T02:35:47;10.50;99.90
63537;DHT22;49686;51.880;5.632;2022-09-09T02:38:15;10.50;99.90
63537;DHT22;49686;51.880;5.632;2022-09-09T02:40:42;10.50;99.90
63537;DHT22;49686;51.880;5.632;2022-09-09T02:43:10;10.40;99.90
63537;DHT22;49686;51.880;5.632;2022-09-09T02:45:42;10.50;99.90
63537;DHT22;49686;51.880;5.632;2022-09-09T02:48:17;10.50;99.90
63537;DHT22;49686;51.880;5.632;2022-09-09T02:50:53;10.50;99.90
63537;DHT22;49686;51.880;5.632;2022-09-09T02:53:26;10.60;99.90
63537;DHT22;49686;51.880;5.632;2022-09-09T02:55:59;10.60;99.90
63537;DHT22;49686;51.880;5.632;2022-09-09T02:58:29;10.50;99.90
63537;DHT22;49686;51.880;5.632;2022-09-09T03:00:56;10.60;99.90
63537;DHT22;49686;51.880;5.632;2022-09-09T03:03:25;10.60;99.90
63537;DHT22;49686;51.880;5.632;2022-09-09T03:05:52;10.60;99.90
63537;DHT22;49686;51.880;5.632;2022-09-09T03:08:19;10.50;99.90
63537;DHT22;49686;51.880;5.632;2022-09-09T03:10:46;10.50;99.90
63537;DHT22;49686;51.880;5.632;2022-09-09T03:13:13;10.50;99.90
63537;DHT22;49686;51.880;5.632;2022-09-09T03:15:40;10.50;99.90
63537;DHT22;49686;51.880;5.632;2022-09-09T03:18:07;10.50;99.90
63537;DHT22;49686;51.880;5.632;2022-09-09T03:20:36;10.50;99.90
63537;DHT22;49686;51.880;5.632;2022-09-09T03:23:03;10.50;99.90
63537;DHT22;49686;51.880;5.632;2022-09-09T03:25:29;10.60;99.90
63537;DHT22;49686;51.880;5.632;2022-09-09T03:27:57;10.60;99.90
63537;DHT22;49686;51.880;5.632;2022-09-09T03:30:25;10.70;99.90
63537;DHT22;49686;51.880;5.632;2022-09-09T03:32:52;10.80;99.90
63537;DHT22;49686;51.880;5.632;2022-09-09T03:35:20;10.80;99.90
63537;DHT22;49686;51.880;5.632;2022-09-09T03:37:48;10.90;99.90
63537;DHT22;49686;51.880;5.632;2022-09-09T03:40:14;10.90;99.90
63537;DHT22;49686;51.880;5.632;2022-09-09T03:42:42;10.90;99.90
63537;DHT22;49686;51.880;5.632;2022-09-09T03:45:10;10.90;99.90
63537;DHT22;49686;51.880;5.632;2022-09-09T03:47:37;10.90;99.90
63537;DHT22;49686;51.880;5.632;2022-09-09T03:50:05;10.90;99.90
63537;DHT22;49686;51.880;5.632;2022-09-09T03:52:34;10.90;99.90
63537;DHT22;49686;51.880;5.632;2022-09-09T03:55:03;11.00;99.90
63537;DHT22;49686;51.880;5.632;2022-09-09T03:57:31;11.00;99.90
63537;DHT22;49686;51.880;5.632;2022-09-09T03:59:58;11.00;99.90
63537;DHT22;49686;51.880;5.632;2022-09-09T04:02:26;11.00;99.90
63537;DHT22;49686;51.880;5.632;2022-09-09T04:04:54;10.90;99.90
63537;DHT22;49686;51.880;5.632;2022-09-09T04:07:21;11.00;99.90
63537;DHT22;49686;51.880;5.632;2022-09-09T04:09:47;11.00;99.90
63537;DHT22;49686;51.880;5.632;2022-09-09T04:12:16;11.10;99.90
63537;DHT22;49686;51.880;5.632;2022-09-09T04:14:43;11.00;99.90
63537;DHT22;49686;51.880;5.632;2022-09-09T04:17:10;11.10;99.90
63537;DHT22;49686;51.880;5.632;2022-09-09T04:19:37;11.10;99.90
63537;DHT22;49686;51.880;5.632;2022-09-09T04:22:04;11.10;99.90
63537;DHT22;49686;51.880;5.632;2022-09-09T04:24:30;11.10;99.90
63537;DHT22;49686;51.880;5.632;2022-09-09T04:26:58;11.20;99.90
63537;DHT22;49686;51.880;5.632;2022-09-09T04:29:26;11.20;99.90
63537;DHT22;49686;51.880;5.632;2022-09-09T04:31:53;11.20;99.90
63537;DHT22;49686;51.880;5.632;2022-09-09T04:34:20;11.20;99.90
63537;DHT22;49686;51.880;5.632;2022-09-09T04:36:47;11.30;99.90
63537;DHT22;49686;51.880;5.632;2022-09-09T04:39:14;11.30;99.90
63537;DHT22;49686;51.880;5.632;2022-09-09T04:41:41;11.30;99.90
63537;DHT22;49686;51.880;5.632;2022-09-09T04:44:08;11.40;99.90
63537;DHT22;49686;51.880;5.632;2022-09-09T04:46:36;11.30;99.90
63537;DHT22;49686;51.880;5.632;2022-09-09T04:49:03;11.40;99.90
63537;DHT22;49686;51.880;5.632;2022-09-09T04:51:30;11.40;99.90
63537;DHT22;49686;51.880;5.632;2022-09-09T04:53:57;11.50;99.90
63537;DHT22;49686;51.880;5.632;2022-09-09T04:56:24;11.60;99.90
63537;DHT22;49686;51.880;5.632;2022-09-09T04:58:52;11.60;99.90
63537;DHT22;49686;51.880;5.632;2022-09-09T05:01:20;11.50;99.90
63537;DHT22;49686;51.880;5.632;2022-09-09T05:03:49;11.50;99.90
63537;DHT22;49686;51.880;5.632;2022-09-09T05:06:17;11.40;99.90
63537;DHT22;49686;51.880;5.632;2022-09-09T05:08:45;11.50;99.90
63537;DHT22;49686;51.880;5.632;2022-09-09T05:11:19;11.50;99.90
63537;DHT22;49686;51.880;5.632;2022-09-09T05:13:46;11.50;99.90
63537;DHT22;49686;51.880;5.632;2022-09-09T05:16:13;11.50;99.90
63537;DHT22;49686;51.880;5.632;2022-09-09T05:18:41;11.50;99.90
63537;DHT22;49686;51.880;5.632;2022-09-09T05:21:10;11.60;99.90
63537;DHT22;49686;51.880;5.632;2022-09-09T05:23:38;11.50;99.90
63537;DHT22;49686;51.880;5.632;2022-09-09T05:26:05;11.60;99.90
63537;DHT22;49686;51.880;5.632;2022-09-09T05:28:34;11.60;99.90
63537;DHT22;49686;51.880;5.632;2022-09-09T05:31:02;11.60;99.90
63537;DHT22;49686;51.880;5.632;2022-09-09T05:33:30;11.60;99.90
63537;DHT22;49686;51.880;5.632;2022-09-09T05:35:58;11.50;99.90
63537;DHT22;49686;51.880;5.632;2022-09-09T05:38:27;11.60;99.90
63537;DHT22;49686;51.880;5.632;2022-09-09T05:40:55;11.60;99.90
63537;DHT22;49686;51.880;5.632;2022-09-09T05:43:22;11.70;99.90
63537;DHT22;49686;51.880;5.632;2022-09-09T05:45:59;11.80;99.90
63537;DHT22;49686;51.880;5.632;2022-09-09T05:48:28;11.90;99.90
63537;DHT22;49686;51.880;5.632;2022-09-09T05:50:55;12.00;99.90
63537;DHT22;49686;51.880;5.632;2022-09-09T05:53:22;12.10;99.90
63537;DHT22;49686;51.880;5.632;2022-09-09T05:55:57;12.20;99.90
63537;DHT22;49686;51.880;5.632;2022-09-09T05:58:25;12.20;99.90
63537;DHT22;49686;51.880;5.632;2022-09-09T06:00:52;12.30;99.90
63537;DHT22;49686;51.880;5.632;2022-09-09T06:03:19;12.30;99.90
63537;DHT22;49686;51.880;5.632;2022-09-09T06:05:46;12.30;99.90
63537;DHT22;49686;51.880;5.632;2022-09-09T06:08:13;12.20;99.90
63537;DHT22;49686;51.880;5.632;2022-09-09T06:10:40;12.20;99.90
63537;DHT22;49686;51.880;5.632;2022-09-09T06:13:09;12.10;99.90
63537;DHT22;49686;51.880;5.632;2022-09-09T06:15:36;12.10;99.90
63537;DHT22;49686;51.880;5.632;2022-09-09T06:18:03;12.20;99.90
63537;DHT22;49686;51.880;5.632;2022-09-09T06:20:30;12.30;99.90
63537;DHT22;49686;51.880;5.632;2022-09-09T06:22:57;12.40;99.90
63537;DHT22;49686;51.880;5.632;2022-09-09T06:25:24;12.40;99.90
63537;DHT22;49686;51.880;5.632;2022-09-09T06:27:51;12.50;99.90
63537;DHT22;49686;51.880;5.632;2022-09-09T06:30:22;12.50;99.90
63537;DHT22;49686;51.880;5.632;2022-09-09T06:32:49;12.50;99.90
63537;DHT22;49686;51.880;5.632;2022-09-09T06:35:15;12.60;99.90
63537;DHT22;49686;51.880;5.632;2022-09-09T06:37:44;12.80;99.90
63537;DHT22;49686;51.880;5.632;2022-09-09T06:40:11;13.20;99.90
63537;DHT22;49686;51.880;5.632;2022-09-09T06:42:38;13.60;99.90
63537;DHT22;49686;51.880;5.632;2022-09-09T06:45:07;13.50;99.90
63537;DHT22;49686;51.880;5.632;2022-09-09T06:47:35;13.60;99.90
63537;DHT22;49686;51.880;5.632;2022-09-09T06:50:02;13.40;99.90
63537;DHT22;49686;51.880;5.632;2022-09-09T06:52:29;13.20;99.90
63537;DHT22;49686;51.880;5.632;2022-09-09T06:54:56;13.50;99.90
63537;DHT22;49686;51.880;5.632;2022-09-09T06:57:23;14.20;99.90
63537;DHT22;49686;51.880;5.632;2022-09-09T07:00:04;14.70;99.90
63537;DHT22;49686;51.880;5.632;2022-09-09T07:02:31;15.70;99.90
63537;DHT22;49686;51.880;5.632;2022-09-09T07:04:59;15.60;99.90
63537;DHT22;49686;51.880;5.632;2022-09-09T07:07:26;15.10;99.90
63537;DHT22;49686;51.880;5.632;2022-09-09T07:09:53;15.40;99.90
63537;DHT22;49686;51.880;5.632;2022-09-09T07:12:19;15.90;99.90
63537;DHT22;49686;51.880;5.632;2022-09-09T07:14:47;15.40;99.90
63537;DHT22;49686;51.880;5.632;2022-09-09T07:17:13;15.90;99.90
63537;DHT22;49686;51.880;5.632;2022-09-09T07:19:40;16.10;99.90
63537;DHT22;49686;51.880;5.632;2022-09-09T07:22:11;15.70;99.90
63537;DHT22;49686;51.880;5.632;2022-09-09T07:24:38;16.40;99.90
63537;DHT22;49686;51.880;5.632;2022-09-09T07:27:05;17.00;99.90
63537;DHT22;49686;51.880;5.632;2022-09-09T07:29:35;15.80;99.90
63537;DHT22;49686;51.880;5.632;2022-09-09T07:32:01;15.90;99.90
63537;DHT22;49686;51.880;5.632;2022-09-09T07:34:34;16.10;99.90
63537;DHT22;49686;51.880;5.632;2022-09-09T07:37:01;15.50;99.90
63537;DHT22;49686;51.880;5.632;2022-09-09T07:39:29;15.10;99.90
63537;DHT22;49686;51.880;5.632;2022-09-09T07:41:59;14.90;99.90
63537;DHT22;49686;51.880;5.632;2022-09-09T07:44:27;15.00;99.90
63537;DHT22;49686;51.880;5.632;2022-09-09T07:46:57;14.90;99.90
63537;DHT22;49686;51.880;5.632;2022-09-09T07:49:24;14.90;99.90
63537;DHT22;49686;51.880;5.632;2022-09-09T07:52:02;15.20;99.90
63537;DHT22;49686;51.880;5.632;2022-09-09T07:54:30;14.80;99.90
63537;DHT22;49686;51.880;5.632;2022-09-09T07:56:59;15.20;99.90
63537;DHT22;49686;51.880;5.632;2022-09-09T07:59:26;15.00;99.90
63537;DHT22;49686;51.880;5.632;2022-09-09T08:01:53;15.00;99.90
63537;DHT22;49686;51.880;5.632;2022-09-09T08:04:22;14.80;99.90
63537;DHT22;49686;51.880;5.632;2022-09-09T08:06:50;14.80;99.90
63537;DHT22;49686;51.880;5.632;2022-09-09T08:09:16;14.90;99.90
63537;DHT22;49686;51.880;5.632;2022-09-09T08:11:45;15.10;99.90
63537;DHT22;49686;51.880;5.632;2022-09-09T08:14:12;15.00;99.90
63537;DHT22;49686;51.880;5.632;2022-09-09T08:16:41;15.10;99.90
63537;DHT22;49686;51.880;5.632;2022-09-09T08:19:09;15.30;99.90
63537;DHT22;49686;51.880;5.632;2022-09-09T08:21:38;15.00;99.90
63537;DHT22;49686;51.880;5.632;2022-09-09T08:24:05;14.90;99.90
63537;DHT22;49686;51.880;5.632;2022-09-09T08:26:34;14.90;99.90
63537;DHT22;49686;51.880;5.632;2022-09-09T08:29:04;14.90;99.90
63537;DHT22;49686;51.880;5.632;2022-09-09T08:31:33;14.90;99.90
63537;DHT22;49686;51.880;5.632;2022-09-09T08:34:01;14.80;99.90
63537;DHT22;49686;51.880;5.632;2022-09-09T08:36:30;14.80;99.90
63537;DHT22;49686;51.880;5.632;2022-09-09T08:38:57;14.80;99.90
63537;DHT22;49686;51.880;5.632;2022-09-09T08:41:45;14.90;99.90
63537;DHT22;49686;51.880;5.632;2022-09-09T08:44:22;15.10;99.90
63537;DHT22;49686;51.880;5.632;2022-09-09T08:46:58;15.00;99.90
63537;DHT22;49686;51.880;5.632;2022-09-09T08:49:57;15.10;99.90
63537;DHT22;49686;51.880;5.632;2022-09-09T08:52:30;15.20;99.90
63537;DHT22;49686;51.880;5.632;2022-09-09T08:55:02;15.30;99.90
63537;DHT22;49686;51.880;5.632;2022-09-09T08:57:31;15.30;99.90
63537;DHT22;49686;51.880;5.632;2022-09-09T09:00:00;15.20;99.90
63537;DHT22;49686;51.880;5.632;2022-09-09T09:02:33;15.30;99.90
63537;DHT22;49686;51.880;5.632;2022-09-09T09:05:11;15.40;99.90
63537;DHT22;49686;51.880;5.632;2022-09-09T09:07:54;15.40;99.90
63537;DHT22;49686;51.880;5.632;2022-09-09T09:10:35;15.10;99.90
63537;DHT22;49686;51.880;5.632;2022-09-09T09:13:13;15.00;99.90
63537;DHT22;49686;51.880;5.632;2022-09-09T09:15:44;14.90;99.90
63537;DHT22;49686;51.880;5.632;2022-09-09T09:18:13;14.90;99.90
63537;DHT22;49686;51.880;5.632;2022-09-09T09:20:46;15.00;99.90
63537;DHT22;49686;51.880;5.632;2022-09-09T09:23:21;15.20;99.90
63537;DHT22;49686;51.880;5.632;2022-09-09T09:25:48;15.10;99.90
63537;DHT22;49686;51.880;5.632;2022-09-09T09:28:19;15.20;99.90
63537;DHT22;49686;51.880;5.632;2022-09-09T09:30:54;15.50;99.90
63537;DHT22;49686;51.880;5.632;2022-09-09T09:33:27;15.80;99.90
63537;DHT22;49686;51.880;5.632;2022-09-09T09:35:57;15.70;99.90
63537;DHT22;49686;51.880;5.632;2022-09-09T09:38:26;15.60;99.90
63537;DHT22;49686;51.880;5.632;2022-09-09T09:41:13;15.80;99.90
63537;DHT22;49686;51.880;5.632;2022-09-09T09:43:41;15.80;99.90
63537;DHT22;49686;51.880;5.632;2022-09-09T09:46:20;15.60;99.90
63537;DHT22;49686;51.880;5.632;2022-09-09T09:48:56;15.40;99.90
63537;DHT22;49686;51.880;5.632;2022-09-09T09:51:24;15.50;99.90
63537;DHT22;49686;51.880;5.632;2022-09-09T09:53:53;15.60;99.90
63537;DHT22;49686;51.880;5.632;2022-09-09T09:56:27;15.50;99.90
63537;DHT22;49686;51.880;5.632;2022-09-09T09:58:57;15.50;99.90
63537;DHT22;49686;51.880;5.632;2022-09-09T10:01:27;15.50;99.90
63537;DHT22;49686;51.880;5.632;2022-09-09T10:03:58;15.30;99.90
63537;DHT22;49686;51.880;5.632;2022-09-09T10:06:32;15.20;99.90
63537;DHT22;49686;51.880;5.632;2022-09-09T10:09:02;15.20;99.90
63537;DHT22;49686;51.880;5.632;2022-09-09T10:11:46;15.20;99.90
63537;DHT22;49686;51.880;5.632;2022-09-09T10:14:20;15.30;99.90
63537;DHT22;49686;51.880;5.632;2022-09-09T10:17:00;15.40;99.90
63537;DHT22;49686;51.880;5.632;2022-09-09T10:19:34;15.40;99.90
63537;DHT22;49686;51.880;5.632;2022-09-09T10:22:25;15.30;99.90
63537;DHT22;49686;51.880;5.632;2022-09-09T10:25:10;15.20;99.90
63537;DHT22;49686;51.880;5.632;2022-09-09T10:27:47;14.90;99.90
63537;DHT22;49686;51.880;5.632;2022-09-09T10:30:29;14.80;99.90
63537;DHT22;49686;51.880;5.632;2022-09-09T10:33:07;14.90;99.90
63537;DHT22;49686;51.880;5.632;2022-09-09T10:35:47;14.90;99.90
63537;DHT22;49686;51.880;5.632;2022-09-09T10:38:17;14.90;99.90
63537;DHT22;49686;51.880;5.632;2022-09-09T10:41:02;14.40;99.90
63537;DHT22;49686;51.880;5.632;2022-09-09T10:46:45;14.40;99.90
63537;DHT22;49686;51.880;5.632;2022-09-09T10:49:24;14.30;99.90
63537;DHT22;49686;51.880;5.632;2022-09-09T10:52:01;14.20;99.90
63537;DHT22;49686;51.880;5.632;2022-09-09T10:54:38;14.30;99.90
63537;DHT22;49686;51.880;5.632;2022-09-09T10:57:15;14.40;99.90
63537;DHT22;49686;51.880;5.632;2022-09-09T10:59:47;14.30;99.90
63537;DHT22;49686;51.880;5.632;2022-09-09T11:02:19;14.10;99.90
63537;DHT22;49686;51.880;5.632;2022-09-09T11:04:54;13.90;99.90
63537;DHT22;49686;51.880;5.632;2022-09-09T11:07:27;13.90;99.90
63537;DHT22;49686;51.880;5.632;2022-09-09T11:10:01;14.10;99.90
63537;DHT22;49686;51.880;5.632;2022-09-09T11:12:31;14.10;99.90
63537;DHT22;49686;51.880;5.632;2022-09-09T11:15:04;14.30;99.90
63537;DHT22;49686;51.880;5.632;2022-09-09T11:17:36;14.90;99.90
63537;DHT22;49686;51.880;5.632;2022-09-09T11:20:11;15.70;99.90
63537;DHT22;49686;51.880;5.632;2022-09-09T11:22:45;15.60;99.90
63537;DHT22;49686;51.880;5.632;2022-09-09T11:25:16;15.50;99.90
63537;DHT22;49686;51.880;5.632;2022-09-09T11:27:55;15.60;99.90
63537;DHT22;49686;51.880;5.632;2022-09-09T11:30:30;15.30;99.90
63537;DHT22;49686;51.880;5.632;2022-09-09T11:33:42;15.50;99.90
63537;DHT22;49686;51.880;5.632;2022-09-09T11:36:35;15.90;99.90
63537;DHT22;49686;51.880;5.632;2022-09-09T11:39:21;15.90;99.90
63537;DHT22;49686;51.880;5.632;2022-09-09T11:41:50;15.80;99.90
63537;DHT22;49686;51.880;5.632;2022-09-09T11:44:19;15.60;99.90
63537;DHT22;49686;51.880;5.632;2022-09-09T11:46:51;15.80;99.90
63537;DHT22;49686;51.880;5.632;2022-09-09T11:49:27;15.70;99.90
63537;DHT22;49686;51.880;5.632;2022-09-09T11:51:57;15.70;99.90
63537;DHT22;49686;51.880;5.632;2022-09-09T11:54:29;15.70;99.90
63537;DHT22;49686;51.880;5.632;2022-09-09T11:56:56;15.60;99.90
63537;DHT22;49686;51.880;5.632;2022-09-09T11:59:31;15.40;99.90
63537;DHT22;49686;51.880;5.632;2022-09-09T12:01:59;15.50;99.90
63537;DHT22;49686;51.880;5.632;2022-09-09T12:04:37;15.60;99.90
63537;DHT22;49686;51.880;5.632;2022-09-09T12:07:32;15.50;99.90
63537;DHT22;49686;51.880;5.632;2022-09-09T12:10:03;15.30;99.90
63537;DHT22;49686;51.880;5.632;2022-09-09T12:12:33;15.10;99.90
63537;DHT22;49686;51.880;5.632;2022-09-09T12:15:17;15.10;99.90
63537;DHT22;49686;51.880;5.632;2022-09-09T12:17:45;15.10;99.90
63537;DHT22;49686;51.880;5.632;2022-09-09T12:20:16;15.20;99.90
63537;DHT22;49686;51.880;5.632;2022-09-09T12:23:04;15.40;99.90
63537;DHT22;49686;51.880;5.632;2022-09-09T12:25:40;15.40;99.90
63537;DHT22;49686;51.880;5.632;2022-09-09T12:28:13;15.40;99.90
63537;DHT22;49686;51.880;5.632;2022-09-09T12:30:48;15.40;99.90
63537;DHT22;49686;51.880;5.632;2022-09-09T12:33:18;15.40;99.90
63537;DHT22;49686;51.880;5.632;2022-09-09T12:35:49;15.40;99.90
63537;DHT22;49686;51.880;5.632;2022-09-09T12:38:24;15.40;99.90
63537;DHT22;49686;51.880;5.632;2022-09-09T12:40:55;15.40;99.90
63537;DHT22;49686;51.880;5.632;2022-09-09T12:43:23;15.50;99.90
63537;DHT22;49686;51.880;5.632;2022-09-09T12:45:52;15.40;99.90
63537;DHT22;49686;51.880;5.632;2022-09-09T12:48:27;15.50;99.90
63537;DHT22;49686;51.880;5.632;2022-09-09T12:50:54;15.70;99.90
63537;DHT22;49686;51.880;5.632;2022-09-09T12:53:26;15.90;99.90
63537;DHT22;49686;51.880;5.632;2022-09-09T12:55:56;16.30;99.90
63537;DHT22;49686;51.880;5.632;2022-09-09T12:58:24;16.40;99.90
63537;DHT22;49686;51.880;5.632;2022-09-09T13:00:53;16.60;99.90
63537;DHT22;49686;51.880;5.632;2022-09-09T13:03:23;16.50;99.90
63537;DHT22;49686;51.880;5.632;2022-09-09T13:05:52;16.80;99.90
63537;DHT22;49686;51.880;5.632;2022-09-09T13:08:19;16.30;99.90
63537;DHT22;49686;51.880;5.632;2022-09-09T13:10:51;16.80;99.90
63537;DHT22;49686;51.880;5.632;2022-09-09T13:13:27;16.80;99.90
63537;DHT22;49686;51.880;5.632;2022-09-09T13:15:56;16.70;99.90
63537;DHT22;49686;51.880;5.632;2022-09-09T13:18:27;17.00;99.90
63537;DHT22;49686;51.880;5.632;2022-09-09T13:20:57;16.80;99.90
63537;DHT22;49686;51.880;5.632;2022-09-09T13:23:27;16.60;99.90
63537;DHT22;49686;51.880;5.632;2022-09-09T13:25:57;16.50;99.90
63537;DHT22;49686;51.880;5.632;2022-09-09T13:28:27;16.40;99.90
63537;DHT22;49686;51.880;5.632;2022-09-09T13:31:00;16.40;99.90
63537;DHT22;49686;51.880;5.632;2022-09-09T13:33:32;16.50;99.90
63537;DHT22;49686;51.880;5.632;2022-09-09T13:36:01;16.30;99.90
63537;DHT22;49686;51.880;5.632;2022-09-09T13:38:31;16.10;99.90
63537;DHT22;49686;51.880;5.632;2022-09-09T13:41:01;16.30;99.90
63537;DHT22;49686;51.880;5.632;2022-09-09T13:43:30;16.90;99.90
63537;DHT22;49686;51.880;5.632;2022-09-09T13:46:00;17.00;99.90
63537;DHT22;49686;51.880;5.632;2022-09-09T13:48:27;16.90;99.90
63537;DHT22;49686;51.880;5.632;2022-09-09T13:51:00;16.80;99.90
63537;DHT22;49686;51.880;5.632;2022-09-09T13:53:27;16.70;99.90
63537;DHT22;49686;51.880;5.632;2022-09-09T13:55:54;16.60;99.90
63537;DHT22;49686;51.880;5.632;2022-09-09T13:58:22;16.20;99.90
63537;DHT22;49686;51.880;5.632;2022-09-09T14:00:53;16.30;99.90
63537;DHT22;49686;51.880;5.632;2022-09-09T14:03:20;16.00;99.90
63537;DHT22;49686;51.880;5.632;2022-09-09T14:05:47;16.00;99.90
63537;DHT22;49686;51.880;5.632;2022-09-09T14:08:23;16.20;99.90
63537;DHT22;49686;51.880;5.632;2022-09-09T14:10:50;16.60;99.90
63537;DHT22;49686;51.880;5.632;2022-09-09T14:13:17;16.70;99.90
63537;DHT22;49686;51.880;5.632;2022-09-09T14:15:45;16.70;99.90
63537;DHT22;49686;51.880;5.632;2022-09-09T14:18:12;16.70;99.90
63537;DHT22;49686;51.880;5.632;2022-09-09T14:20:40;16.50;99.90
63537;DHT22;49686;51.880;5.632;2022-09-09T14:23:10;16.60;99.90
63537;DHT22;49686;51.880;5.632;2022-09-09T14:25:40;16.60;99.90
63537;DHT22;49686;51.880;5.632;2022-09-09T14:28:09;16.80;99.90
63537;DHT22;49686;51.880;5.632;2022-09-09T14:30:38;17.10;99.90
63537;DHT22;49686;51.880;5.632;2022-09-09T14:33:06;17.10;99.90
63537;DHT22;49686;51.880;5.632;2022-09-09T14:35:34;17.50;99.90
63537;DHT22;49686;51.880;5.632;2022-09-09T14:38:01;17.20;99.90
63537;DHT22;49686;51.880;5.632;2022-09-09T14:40:28;17.30;99.90
63537;DHT22;49686;51.880;5.632;2022-09-09T14:42:55;17.20;99.90
63537;DHT22;49686;51.880;5.632;2022-09-09T14:45:22;17.10;99.90
63537;DHT22;49686;51.880;5.632;2022-09-09T14:47:49;16.80;99.90
63537;DHT22;49686;51.880;5.632;2022-09-09T14:50:19;16.60;99.90
63537;DHT22;49686;51.880;5.632;2022-09-09T14:52:45;16.50;99.90
63537;DHT22;49686;51.880;5.632;2022-09-09T14:55:13;16.30;99.90
63537;DHT22;49686;51.880;5.632;2022-09-09T14:57:40;16.00;99.90
63537;DHT22;49686;51.880;5.632;2022-09-09T15:00:09;15.90;99.90
63537;DHT22;49686;51.880;5.632;2022-09-09T15:02:36;15.90;99.90
63537;DHT22;49686;51.880;5.632;2022-09-09T15:05:04;15.80;99.90
63537;DHT22;49686;51.880;5.632;2022-09-09T15:07:32;15.80;99.90
63537;DHT22;49686;51.880;5.632;2022-09-09T15:09:59;15.90;99.90
63537;DHT22;49686;51.880;5.632;2022-09-09T15:12:27;15.90;99.90
63537;DHT22;49686;51.880;5.632;2022-09-09T15:14:53;15.90;99.90
63537;DHT22;49686;51.880;5.632;2022-09-09T15:17:20;16.00;99.90
63537;DHT22;49686;51.880;5.632;2022-09-09T15:19:50;16.20;99.90
63537;DHT22;49686;51.880;5.632;2022-09-09T15:22:17;16.30;99.90
63537;DHT22;49686;51.880;5.632;2022-09-09T15:24:45;16.40;99.90
63537;DHT22;49686;51.880;5.632;2022-09-09T15:27:12;16.40;99.90
63537;DHT22;49686;51.880;5.632;2022-09-09T15:29:39;16.40;99.90
63537;DHT22;49686;51.880;5.632;2022-09-09T15:32:06;16.40;99.90
63537;DHT22;49686;51.880;5.632;2022-09-09T15:34:33;16.30;99.90
63537;DHT22;49686;51.880;5.632;2022-09-09T15:37:00;16.20;99.90
63537;DHT22;49686;51.880;5.632;2022-09-09T15:39:27;16.10;99.90
63537;DHT22;49686;51.880;5.632;2022-09-09T15:41:56;15.70;99.90
63537;DHT22;49686;51.880;5.632;2022-09-09T15:44:23;15.40;99.90
63537;DHT22;49686;51.880;5.632;2022-09-09T15:46:51;15.40;99.90
63537;DHT22;49686;51.880;5.632;2022-09-09T15:49:20;15.50;99.90
63537;DHT22;49686;51.880;5.632;2022-09-09T15:51:50;15.40;99.90
63537;DHT22;49686;51.880;5.632;2022-09-09T15:54:21;15.40;99.90
63537;DHT22;49686;51.880;5.632;2022-09-09T15:56:51;15.40;99.90
63537;DHT22;49686;51.880;5.632;2022-09-09T15:59:20;15.40;99.90
63537;DHT22;49686;51.880;5.632;2022-09-09T16:01:47;15.40;99.90